Statesboro, GA (30458)

2:16 PM EST on January 26, 2015 (GMT -0500)
Statesboro-Bulloch County | Change Station
CLOSE
Current Station
Airport
Location: Statesboro,
Elevation: 187 ft
Nearby Weather Stations
Active Advisory: Special Statement

Elev 187 ft 32.48 °N, 81.74 °W | Updated 21 minutes ago

Overcast
Overcast
54 °F
Feels Like 54 °F
N
15
Wind Variable Wind from WNW
Gusts 26 mph

Today
High -- | Low -- °F
--% Chance of Precip.
Yesterday
High -- | Low -- °F
Precip. -- in
7:25 AM 5:54 PM
Waxing Crescent, 46% visible
Pressure 29.72 in
Visibility 10.0 miles
Clouds Scattered Clouds 3700 ft
Overcast 4400 ft
Dew Point 40 °F
Humidity 59%
Rainfall 0.00 in
Snow Depth Not available.
UV 1 out of 12
Pollen 4.60 out of 12
Air Quality Not available.
Flu Activity Not available.
METAR KTBR 261855Z AUTO 30013G23KT 10SM SCT037 OVC044 12/04 A2972 RMK AO2 T01200043

More Conditions Fewer Conditions

Pressure 29.72 in
Visibility 10.0 miles
Clouds Scattered Clouds 3700 ft
Overcast 4400 ft
Dew Point 40 °F
Humidity 59%
Rainfall 0.00 in
Snow Depth Not available.
UV 1 out of 12
Pollen 4.60 out of 12
Air Quality Not available.
Flu Activity Not available.
METAR KTBR 261855Z AUTO 30013G23KT 10SM SCT037 OVC044 12/04 A2972 RMK AO2 T01200043

More Conditions Fewer Conditions

10-Day Weather Forecast

Almanac

Astronomy

Jan. 26, 2015 Rise Set
Actual Time
Civil Twilight
Nautical Twilight
Astronomical Twilight
Moon
Length of Visible Light
Length of Day
Tomorrow will be .
, % of the Moon is Illuminated

Today's Extremes

State Highs State Lows

Community

WunderPhotos

Upload Photos

1,790,336 photos uploaded!

WunderBlogs® & News

Nearby

Air Quality

  Air Quality AQ Index Pollutant
Not available.

Snow Depth

Station Depth Elevation

Earthquake Activity

City Distance Mag. Time & Date
Minimum magnitude displayed is 2.5.

Coastal Water Temperatures

Place Temperature

Nearby Weather Stations